Big Bear Station Historical Data
Daily Summary for January 03, 2018 Units:  Both    English   Metric
Next Day »
Daily Weekly Monthly Yearly Custom
  High: Low: Average:
Temperature: 54.7 °F /  12.6 °C 26.8 °F /  -2.9 °C 40.6 °F /  4.8 °C
Dew Point: 29.2 °F /  -1.6 °C 16.4 °F /  -8.7 °C 20 °F /  -6.7 °C
Humidity: 79% 26% 47%
Wind Speed: 3.7mph /  6km/h - 0.6mph /  1km/h
Wind Gust: -999.0mph /  -1607.7km/h - -
Wind- - WNW
Pressure: 30.31 in /  1026.3 hPa 23.59 in /  798.8 hPa -
Precipitation: 0.00 in /  0 mm    
Historical Graphs
 
 
Tabular Data for January 03, 2018
Time Temperature Dew Point Pressure Wind Wind Speed Wind Gust Humidity Rainfall Rate (Hourly)
00:12 31.3 °F /  -0.4 °C 17.8 °F /  -7.9 °C 30.31in /  1026.3hPa Calm   -999.0mph /  -1607.7km/h 57% 0in /  0mm
00:27 30.7 °F /  -0.7 °C 17.7 °F /  -7.9 °C 30.31in /  1026.3hPa Calm   -999.0mph /  -1607.7km/h 58% 0in /  0mm
00:42 30.2 °F /  -1 °C 17.6 °F /  -8 °C 30.31in /  1026.3hPa Calm   -999.0mph /  -1607.7km/h 59% 0in /  0mm
01:13 30.0 °F /  -1.1 °C 20.7 °F /  -6.3 °C 30.30in /  1026hPa Calm   -999.0mph /  -1607.7km/h 68% 0in /  0mm
01:28 29.7 °F /  -1.3 °C 20.1 °F /  -6.6 °C 30.31in /  1026.3hPa Calm   -999.0mph /  -1607.7km/h 67% 0in /  0mm
01:44 29.3 °F /  -1.5 °C 19.7 °F /  -6.8 °C 30.31in /  1026.3hPa Calm   -999.0mph /  -1607.7km/h 67% 0in /  0mm
01:59 29.1 °F /  -1.6 °C 18.8 °F /  -7.3 °C 30.30in /  1026hPa Calm   -999.0mph /  -1607.7km/h 65% 0in /  0mm
02:14 28.8 °F /  -1.8 °C 18.2 °F /  -7.7 °C 30.30in /  1026hPa Calm   -999.0mph /  -1607.7km/h 64% 0in /  0mm
02:29 28.4 °F /  -2 °C 20.2 °F /  -6.6 °C 30.30in /  1026hPa Calm   -999.0mph /  -1607.7km/h 71% 0in /  0mm
03:00 28.0 °F /  -2.2 °C 19.1 °F /  -7.2 °C 30.30in /  1026hPa Calm   -999.0mph /  -1607.7km/h 69% 0in /  0mm
03:30 27.5 °F /  -2.5 °C 19.0 °F /  -7.2 °C 30.29in /  1025.6hPa Calm   -999.0mph /  -1607.7km/h 70% 0in /  0mm
04:00 27.3 °F /  -2.6 °C 19.1 °F /  -7.2 °C 30.29in /  1025.6hPa Calm   -999.0mph /  -1607.7km/h 71% 0in /  0mm
04:31 26.8 °F /  -2.9 °C 19.6 °F /  -6.9 °C 30.29in /  1025.6hPa Calm   -999.0mph /  -1607.7km/h 74% 0in /  0mm
05:01 27.0 °F /  -2.8 °C 21.4 °F /  -5.9 °C 30.29in /  1025.6hPa Calm   -999.0mph /  -1607.7km/h 79% 0in /  0mm
05:17 27.0 °F /  -2.8 °C 20.8 °F /  -6.2 °C 30.29in /  1025.6hPa Calm   -999.0mph /  -1607.7km/h 77% 0in /  0mm
05:32 27.0 °F /  -2.8 °C 20.1 °F /  -6.6 °C 30.29in /  1025.6hPa Calm   -999.0mph /  -1607.7km/h 75% 0in /  0mm
05:47 28.2 °F /  -2.1 °C 21.3 °F /  -5.9 °C 30.29in /  1025.6hPa Calm   -999.0mph /  -1607.7km/h 75% 0in /  0mm
06:02 28.0 °F /  -2.2 °C 21.4 °F /  -5.9 °C 30.29in /  1025.6hPa Calm   -999.0mph /  -1607.7km/h 76% 0in /  0mm
06:17 28.4 °F /  -2 °C 21.5 °F /  -5.8 °C 30.29in /  1025.6hPa Calm   -999.0mph /  -1607.7km/h 75% 0in /  0mm
07:03 29.5 °F /  -1.4 °C 21.3 °F /  -5.9 °C 30.29in /  1025.6hPa Calm   -999.0mph /  -1607.7km/h 71% 0in /  0mm
07:18 29.7 °F /  -1.3 °C 21.1 °F /  -6.1 °C 30.29in /  1025.6hPa Calm   -999.0mph /  -1607.7km/h 70% 0in /  0mm
07:33 29.8 °F /  -1.2 °C 20.9 °F /  -6.2 °C 30.29in /  1025.6hPa Calm   -999.0mph /  -1607.7km/h 69% 0in /  0mm
07:49 30.0 °F /  -1.1 °C 20.4 °F /  -6.4 °C 30.29in /  1025.6hPa Calm   -999.0mph /  -1607.7km/h 67% 0in /  0mm
08:19 31.1 °F /  -0.5 °C 22.1 °F /  -5.5 °C 30.29in /  1025.6hPa Calm   -999.0mph /  -1607.7km/h 69% 0in /  0mm
08:34 32.2 °F /  0.1 °C 23.5 °F /  -4.7 °C 30.29in /  1025.6hPa Calm   -999.0mph /  -1607.7km/h 70% 0in /  0mm
09:05 35.4 °F /  1.9 °C 25.5 °F /  -3.6 °C 30.30in /  1026hPa Calm   -999.0mph /  -1607.7km/h 67% 0in /  0mm
09:20 36.1 °F /  2.3 °C 25.5 °F /  -3.6 °C 30.30in /  1026hPa Calm   -999.0mph /  -1607.7km/h 65% 0in /  0mm
09:50 37.4 °F /  3 °C 26.7 °F /  -2.9 °C 30.30in /  1026hPa Calm   -999.0mph /  -1607.7km/h 65% 0in /  0mm
10:06 39.0 °F /  3.9 °C 27.9 °F /  -2.3 °C 30.30in /  1026hPa Calm   -999.0mph /  -1607.7km/h 64% 0in /  0mm
10:21 41.2 °F /  5.1 °C 28.4 °F /  -2 °C 30.29in /  1025.6hPa Calm   -999.0mph /  -1607.7km/h 60% 0in /  0mm
10:36 42.6 °F /  5.9 °C 22.2 °F /  -5.4 °C 30.29in /  1025.6hPa Calm   -999.0mph /  -1607.7km/h 44% 0in /  0mm
10:51 45.5 °F /  7.5 °C 26.9 °F /  -2.8 °C 30.29in /  1025.6hPa Calm   -999.0mph /  -1607.7km/h 48% 0in /  0mm
11:06 48.0 °F /  8.9 °C 29.2 °F /  -1.6 °C 30.28in /  1025.3hPa Calm   -999.0mph /  -1607.7km/h 48% 0in /  0mm
11:22 50.2 °F /  10.1 °C 27.4 °F /  -2.6 °C 30.27in /  1024.9hPa Calm   -999.0mph /  -1607.7km/h 41% 0in /  0mm
11:52 54.0 °F /  12.2 °C 21.6 °F /  -5.8 °C 30.26in /  1024.6hPa WNW 3.2mph /  5.1km/h -999.0mph /  -1607.7km/h 28% 0in /  0mm
12:07 54.7 °F /  12.6 °C 21.3 °F /  -5.9 °C 30.26in /  1024.6hPa WNW 2.7mph /  4.3km/h -999.0mph /  -1607.7km/h 27% 0in /  0mm
12:22 54.1 °F /  12.3 °C 19.9 °F /  -6.7 °C 30.25in /  1024.3hPa South 1.1mph /  1.8km/h -999.0mph /  -1607.7km/h 26% 0in /  0mm
12:38 53.4 °F /  11.9 °C 21.1 °F /  -6.1 °C 30.24in /  1023.9hPa WNW 3.7mph /  6km/h -999.0mph /  -1607.7km/h 28% 0in /  0mm
12:53 53.4 °F /  11.9 °C 20.2 °F /  -6.6 °C 30.24in /  1023.9hPa WNW 1.7mph /  2.7km/h -999.0mph /  -1607.7km/h 27% 0in /  0mm
13:08 54.0 °F /  12.2 °C 19.9 °F /  -6.7 °C 30.24in /  1023.9hPa NW 2.2mph /  3.5km/h -999.0mph /  -1607.7km/h 26% 0in /  0mm
13:38 53.4 °F /  11.9 °C 20.2 °F /  -6.6 °C 30.23in /  1023.6hPa NNW 2.2mph /  3.5km/h -999.0mph /  -1607.7km/h 27% 0in /  0mm
14:09 52.2 °F /  11.2 °C 19.2 °F /  -7.1 °C 30.24in /  1023.9hPa WNW 2.7mph /  4.3km/h -999.0mph /  -1607.7km/h 27% 0in /  0mm
14:24 52.0 °F /  11.1 °C 19.0 °F /  -7.2 °C 30.24in /  1023.9hPa Calm   -999.0mph /  -1607.7km/h 27% 0in /  0mm
14:39 52.2 °F /  11.2 °C 19.2 °F /  -7.1 °C 30.23in /  1023.6hPa NW 2.2mph /  3.5km/h -999.0mph /  -1607.7km/h 27% 0in /  0mm
15:10 50.9 °F /  10.5 °C 18.9 °F /  -7.3 °C 30.23in /  1023.6hPa WNW 3.7mph /  6km/h -999.0mph /  -1607.7km/h 28% 0in /  0mm
15:25 50.5 °F /  10.3 °C 18.6 °F /  -7.4 °C 30.23in /  1023.6hPa NNW 1.7mph /  2.7km/h -999.0mph /  -1607.7km/h 28% 0in /  0mm
15:40 50.4 °F /  10.2 °C 19.3 °F /  -7.1 °C 30.24in /  1023.9hPa NW 2.2mph /  3.5km/h -999.0mph /  -1607.7km/h 29% 0in /  0mm
16:26 49.3 °F /  9.6 °C 19.1 °F /  -7.2 °C 30.24in /  1023.9hPa Calm   -999.0mph /  -1607.7km/h 30% 0in /  0mm
16:41 49.1 °F /  9.5 °C 19.0 °F /  -7.2 °C 30.24in /  1023.9hPa WNW 1.1mph /  1.8km/h -999.0mph /  -1607.7km/h 30% 0in /  0mm
16:56 48.9 °F /  9.4 °C 18.8 °F /  -7.3 °C 30.24in /  1023.9hPa Calm   -999.0mph /  -1607.7km/h 30% 0in /  0mm
17:11 48.4 °F /  9.1 °C 18.4 °F /  -7.6 °C 30.24in /  1023.9hPa Calm   -999.0mph /  -1607.7km/h 30% 0in /  0mm
17:27 48.0 °F /  8.9 °C 18.0 °F /  -7.8 °C 30.24in /  1023.9hPa West 1.1mph /  1.8km/h -999.0mph /  -1607.7km/h 30% 0in /  0mm
17:58 47.5 °F /  8.6 °C 18.3 °F /  -7.6 °C 30.24in /  1023.9hPa Calm   -999.0mph /  -1607.7km/h 31% 0in /  0mm
18:13 47.1 °F /  8.4 °C 18.7 °F /  -7.4 °C 30.25in /  1024.3hPa Calm   -999.0mph /  -1607.7km/h 32% 0in /  0mm
18:59 46.6 °F /  8.1 °C 18.3 °F /  -7.6 °C 30.26in /  1024.6hPa Calm   -999.0mph /  -1607.7km/h 32% 0in /  0mm
19:14 46.4 °F /  8 °C 18.1 °F /  -7.7 °C 30.26in /  1024.6hPa NW 2.2mph /  3.5km/h -999.0mph /  -1607.7km/h 32% 0in /  0mm
19:29 46.4 °F /  8 °C 18.1 °F /  -7.7 °C 30.27in /  1024.9hPa WNW 1.7mph /  2.7km/h -999.0mph /  -1607.7km/h 32% 0in /  0mm
19:44 46.0 °F /  7.8 °C 17.8 °F /  -7.9 °C 30.27in /  1024.9hPa North 2.2mph /  3.5km/h -999.0mph /  -1607.7km/h 32% 0in /  0mm
20:00 45.5 °F /  7.5 °C 17.3 °F /  -8.2 °C 30.27in /  1024.9hPa Calm   -999.0mph /  -1607.7km/h 32% 0in /  0mm
20:15 45.0 °F /  7.2 °C 16.9 °F /  -8.4 °C 23.59in /  798.8hPa Calm   -999.0mph /  -1607.7km/h 32% 0in /  0mm
20:46 44.1 °F /  6.7 °C 16.8 °F /  -8.4 °C 30.27in /  1024.9hPa Calm   -999.0mph /  -1607.7km/h 33% 0in /  0mm
21:01 43.0 °F /  6.1 °C 17.2 °F /  -8.2 °C 30.27in /  1024.9hPa Calm   -999.0mph /  -1607.7km/h 35% 0in /  0mm
21:16 42.1 °F /  5.6 °C 17.0 °F /  -8.3 °C 30.27in /  1024.9hPa Calm   -999.0mph /  -1607.7km/h 36% 0in /  0mm
21:31 41.7 °F /  5.4 °C 16.7 °F /  -8.5 °C 30.27in /  1024.9hPa Calm   -999.0mph /  -1607.7km/h 36% 0in /  0mm
21:47 41.4 °F /  5.2 °C 16.4 °F /  -8.7 °C 30.27in /  1024.9hPa Calm   -999.0mph /  -1607.7km/h 36% 0in /  0mm
22:02 42.3 °F /  5.7 °C 16.6 °F /  -8.6 °C 30.28in /  1025.3hPa Calm   -999.0mph /  -1607.7km/h 35% 0in /  0mm
22:17 44.1 °F /  6.7 °C 17.5 °F /  -8.1 °C 30.28in /  1025.3hPa Calm   -999.0mph /  -1607.7km/h 34% 0in /  0mm
22:32 44.1 °F /  6.7 °C 17.5 °F /  -8.1 °C 30.28in /  1025.3hPa WSW 3.7mph /  6km/h -999.0mph /  -1607.7km/h 34% 0in /  0mm
22:47 43.9 °F /  6.6 °C 17.3 °F /  -8.2 °C 23.60in /  799.1hPa Calm   -999.0mph /  -1607.7km/h 34% 0in /  0mm
23:03 44.1 °F /  6.7 °C 16.8 °F /  -8.4 °C 30.28in /  1025.3hPa Calm   -999.0mph /  -1607.7km/h 33% 0in /  0mm
23:19 44.1 °F /  6.7 °C 16.8 °F /  -8.4 °C 30.28in /  1025.3hPa ESE 1.7mph /  2.7km/h -999.0mph /  -1607.7km/h 33% 0in /  0mm
23:34 43.2 °F /  6.2 °C 16.7 °F /  -8.5 °C 30.27in /  1024.9hPa Calm   -999.0mph /  -1607.7km/h 34% 0in /  0mm
23:49 42.6 °F /  5.9 °C 16.8 °F /  -8.4 °C 30.27in /  1024.9hPa Calm   -999.0mph /  -1607.7km/h 35% 0in /  0mm
Big Bear CA Weather